createdAt,value
2019-03-12T00:00:09.405Z,100376.56
2019-03-12T00:03:16.167Z,100395.59
2019-03-12T00:06:21.255Z,100391.88
2019-03-12T00:09:26.450Z,100400.03
2019-03-12T00:12:31.630Z,100400.58
2019-03-12T00:15:36.848Z,100401.25
2019-03-12T00:18:42.037Z,100406.42
2019-03-12T00:21:47.191Z,100411.06
2019-03-12T00:24:52.562Z,100423.30
2019-03-12T00:27:57.742Z,100416.63
2019-03-12T00:31:02.880Z,100422.94
2019-03-12T00:34:08.009Z,100431.63
2019-03-12T00:37:13.196Z,100432.30
2019-03-12T00:40:18.356Z,100439.32
2019-03-12T00:43:23.539Z,100436.12
2019-03-12T00:46:28.643Z,100444.18
2019-03-12T00:49:33.756Z,100449.34
2019-03-12T00:52:38.875Z,100456.18
2019-03-12T00:55:44.046Z,100448.77
2019-03-12T00:58:49.216Z,100461.83
2019-03-12T01:01:54.305Z,100462.00
2019-03-12T01:04:59.408Z,100461.47
2019-03-12T01:08:04.563Z,100470.20
2019-03-12T01:11:09.703Z,100470.70
2019-03-12T01:14:14.852Z,100469.34
2019-03-12T01:17:20.074Z,100466.03
2019-03-12T01:20:25.214Z,100468.43
2019-03-12T01:23:30.358Z,100472.21
2019-03-12T01:26:35.443Z,100474.02
2019-03-12T01:29:40.634Z,100472.73
2019-03-12T01:32:45.844Z,100466.04
2019-03-12T01:35:52.020Z,100470.38
2019-03-12T01:38:57.127Z,100467.14
2019-03-12T01:42:02.236Z,100463.34
2019-03-12T01:45:09.005Z,100458.67
2019-03-12T01:48:14.144Z,100457.64
2019-03-12T01:51:19.281Z,100466.87
2019-03-12T01:54:24.401Z,100466.22
2019-03-12T01:57:29.527Z,100464.85
2019-03-12T02:00:34.715Z,100469.66
2019-03-12T02:03:39.775Z,100471.53
2019-03-12T02:06:44.928Z,100470.38
2019-03-12T02:09:50.011Z,100471.08
2019-03-12T02:12:55.110Z,100474.43
2019-03-12T02:16:00.335Z,100488.63
2019-03-12T02:19:05.496Z,100494.75
2019-03-12T02:22:10.600Z,100490.41
2019-03-12T02:25:16.905Z,100488.98
2019-03-12T02:28:21.989Z,100488.33
2019-03-12T02:31:27.187Z,100487.97
2019-03-12T02:34:33.314Z,100498.65
2019-03-12T02:37:38.485Z,100495.36
2019-03-12T02:40:43.618Z,100500.99
2019-03-12T02:43:48.821Z,100500.95
2019-03-12T02:46:53.981Z,100501.09
2019-03-12T02:49:59.147Z,100503.20
2019-03-12T02:53:04.279Z,100498.42
2019-03-12T02:56:09.418Z,100504.92
2019-03-12T02:59:14.618Z,100496.91
2019-03-12T03:02:19.755Z,100497.73
2019-03-12T03:05:24.977Z,100492.21
2019-03-12T03:08:32.389Z,100501.14
2019-03-12T03:11:37.513Z,100504.81
2019-03-12T03:14:42.678Z,100506.38
2019-03-12T03:17:47.785Z,100500.81
2019-03-12T03:20:52.925Z,100514.63
2019-03-12T03:23:58.122Z,100509.22
2019-03-12T03:27:03.313Z,100512.35
2019-03-12T03:30:12.239Z,100523.73
2019-03-12T03:33:17.378Z,100524.17
2019-03-12T03:36:22.593Z,100525.51
2019-03-12T03:39:27.801Z,100522.97
2019-03-12T03:42:32.984Z,100524.53
2019-03-12T03:45:38.129Z,100531.02
2019-03-12T03:48:43.287Z,100533.83
2019-03-12T03:51:48.449Z,100528.66
2019-03-12T03:54:53.610Z,100537.38
2019-03-12T03:57:58.755Z,100528.80
2019-03-12T04:01:04.443Z,100532.09
2019-03-12T04:04:09.582Z,100525.62
2019-03-12T04:07:14.747Z,100522.89
2019-03-12T04:10:19.888Z,100517.55
2019-03-12T04:13:25.023Z,100515.48
2019-03-12T04:16:30.133Z,100517.12
2019-03-12T04:19:35.261Z,100513.74
2019-03-12T04:22:40.381Z,100512.88
2019-03-12T04:25:45.491Z,100526.87
2019-03-12T04:28:50.612Z,100518.02
2019-03-12T04:31:55.753Z,100508.44
2019-03-12T04:35:00.952Z,100512.03
2019-03-12T04:38:07.401Z,100513.83
2019-03-12T04:41:12.582Z,100513.51
2019-03-12T04:44:17.711Z,100511.87
2019-03-12T04:47:22.796Z,100509.31
2019-03-12T04:50:27.979Z,100507.41
2019-03-12T04:53:33.073Z,100508.08
2019-03-12T04:56:38.163Z,100496.52
2019-03-12T04:59:43.361Z,100498.75
2019-03-12T05:02:48.680Z,100507.48
2019-03-12T05:05:53.802Z,100506.91
2019-03-12T05:08:58.922Z,100494.59
2019-03-12T05:12:04.094Z,100494.96
2019-03-12T05:15:11.242Z,100498.31
2019-03-12T05:18:16.552Z,100493.89
2019-03-12T05:21:21.642Z,100483.81
2019-03-12T05:24:26.762Z,100490.51
2019-03-12T05:27:31.978Z,100487.98
2019-03-12T05:30:37.084Z,100486.33
2019-03-12T05:33:42.254Z,100487.87
2019-03-12T05:36:47.389Z,100487.17
2019-03-12T05:39:52.481Z,100483.73
2019-03-12T05:42:57.667Z,100484.53
2019-03-12T05:46:02.904Z,100481.41
2019-03-12T05:49:08.012Z,100499.16
2019-03-12T05:52:13.133Z,100493.86
2019-03-12T05:55:18.286Z,100491.48
2019-03-12T05:58:23.389Z,100491.04
2019-03-12T06:01:28.670Z,100491.92
2019-03-12T06:04:33.789Z,100499.44
2019-03-12T06:07:38.948Z,100498.83
2019-03-12T06:10:45.218Z,100496.78
2019-03-12T06:13:50.338Z,100495.20
2019-03-12T06:16:55.437Z,100489.77
2019-03-12T06:20:00.661Z,100491.44
2019-03-12T06:23:06.123Z,100484.87
2019-03-12T06:26:11.260Z,100478.02
2019-03-12T06:29:16.554Z,100469.81
2019-03-12T06:32:29.165Z,100461.57
2019-03-12T06:35:50.803Z,100467.84
2019-03-12T06:39:12.774Z,100467.94
2019-03-12T06:42:32.348Z,100465.82
2019-03-12T06:45:56.469Z,100458.23
2019-03-12T06:49:12.289Z,100461.41
2019-03-12T06:52:40.545Z,100457.55
2019-03-12T06:56:08.492Z,100454.49
2019-03-12T06:59:35.588Z,100454.81
2019-03-12T07:02:48.335Z,100446.44
2019-03-12T07:06:27.582Z,100443.32
2019-03-12T07:09:44.978Z,100439.63
2019-03-12T07:13:16.375Z,100446.63
2019-03-12T07:16:39.117Z,100443.13
2019-03-12T07:20:01.823Z,100439.03
2019-03-12T07:23:22.513Z,100430.19
2019-03-12T07:26:45.637Z,100430.37
2019-03-12T07:30:16.685Z,100422.80
2019-03-12T07:33:40.745Z,100416.34
2019-03-12T07:36:54.793Z,100417.32
2019-03-12T07:40:28.062Z,100415.33
2019-03-12T07:43:43.675Z,100411.47
2019-03-12T07:47:16.903Z,100407.30
2019-03-12T07:50:28.941Z,100403.64
2019-03-12T07:54:05.182Z,100400.09
2019-03-12T07:57:23.071Z,100383.88
2019-03-12T08:00:38.061Z,100378.19
2019-03-12T08:04:02.949Z,100377.81
2019-03-12T08:07:20.656Z,100375.69
2019-03-12T08:10:43.697Z,100365.64
2019-03-12T08:14:06.498Z,100358.86
2019-03-12T08:17:30.625Z,100361.97
2019-03-12T08:20:47.662Z,100347.73
2019-03-12T08:24:01.662Z,100339.39
2019-03-12T08:27:26.046Z,100330.20
2019-03-12T08:30:48.998Z,100330.32
2019-03-12T08:34:19.193Z,100327.64
2019-03-12T08:37:43.477Z,100316.18
2019-03-12T08:41:16.458Z,100307.67
2019-03-12T08:44:43.733Z,100299.86
2019-03-12T08:48:04.380Z,100290.77
2019-03-12T08:51:26.562Z,100286.69
2019-03-12T08:54:53.767Z,100283.17
2019-03-12T08:58:13.951Z,100286.72
2019-03-12T09:01:36.085Z,100277.42
2019-03-12T09:05:05.948Z,100269.61
2019-03-12T09:08:19.362Z,100267.24
2019-03-12T09:11:55.645Z,100256.03
2019-03-12T09:15:36.767Z,100245.59
2019-03-12T09:19:04.254Z,100245.75
2019-03-12T09:22:28.356Z,100254.56
2019-03-12T09:25:45.724Z,100243.17
2019-03-12T09:29:05.966Z,100235.56
2019-03-12T09:32:40.249Z,100219.73
2019-03-12T09:36:13.506Z,100216.83
2019-03-12T09:39:24.921Z,100211.91
2019-03-12T09:42:48.991Z,100201.06
2019-03-12T09:46:22.122Z,100204.11
2019-03-12T09:49:45.134Z,100197.44
2019-03-12T09:52:59.908Z,100182.16
2019-03-12T09:56:14.233Z,100183.45
2019-03-12T09:59:41.811Z,100177.81
2019-03-12T10:03:05.914Z,100177.22
2019-03-12T10:06:22.405Z,100167.96
2019-03-12T10:09:45.242Z,100156.58
2019-03-12T10:13:01.207Z,100151.20
2019-03-12T10:16:31.327Z,100146.63
2019-03-12T10:19:50.350Z,100144.88
2019-03-12T10:23:27.460Z,100129.47
2019-03-12T10:26:46.805Z,100124.86
2019-03-12T10:30:20.120Z,100122.18
2019-03-12T10:33:36.207Z,100106.20
2019-03-12T10:37:11.205Z,100108.34
2019-03-12T10:40:27.586Z,100105.70
2019-03-12T10:43:44.701Z,100096.28
2019-03-12T10:46:56.865Z,100092.13
2019-03-12T10:50:02.119Z,100085.70
2019-03-12T10:53:07.611Z,100086.71
2019-03-12T10:56:12.786Z,100080.87
2019-03-12T10:59:17.992Z,100076.95
2019-03-12T11:02:23.175Z,100061.79
2019-03-12T11:05:28.350Z,100050.95
2019-03-12T11:08:33.464Z,100045.41
2019-03-12T11:11:38.663Z,100046.93
2019-03-12T11:14:44.864Z,100041.89
2019-03-12T11:17:50.509Z,100033.07
2019-03-12T11:20:58.566Z,100033.41
2019-03-12T11:24:02.743Z,100018.11
2019-03-12T11:27:07.884Z,100013.13
2019-03-12T11:30:15.172Z,99997.73
2019-03-12T11:33:20.498Z,99998.39
2019-03-12T11:36:25.639Z,99982.81
2019-03-12T11:39:30.828Z,99968.74
2019-03-12T11:42:36.000Z,99968.60
2019-03-12T11:45:41.320Z,99955.59
2019-03-12T11:48:46.506Z,99954.87
2019-03-12T11:51:51.620Z,99944.03
2019-03-12T11:54:56.724Z,99936.56
2019-03-12T11:58:02.001Z,99941.73
2019-03-12T12:01:08.262Z,99928.80
2019-03-12T12:04:13.517Z,99917.69
2019-03-12T12:07:18.596Z,99900.56
2019-03-12T12:10:24.143Z,99900.66
2019-03-12T12:13:29.228Z,99897.75
2019-03-12T12:16:34.339Z,99872.53
2019-03-12T12:19:39.584Z,99864.97
2019-03-12T12:22:44.737Z,99858.80
2019-03-12T12:25:49.872Z,99849.25
2019-03-12T12:28:55.042Z,99838.08
2019-03-12T12:32:00.264Z,99837.56
2019-03-12T12:35:06.227Z,99831.44
2019-03-12T12:38:12.413Z,99831.34
2019-03-12T12:41:17.503Z,99811.26
2019-03-12T12:44:22.772Z,99801.70
2019-03-12T12:47:27.891Z,99784.97
2019-03-12T12:50:33.072Z,99779.59
2019-03-12T12:53:38.336Z,99777.56
2019-03-12T12:56:43.494Z,99762.83
2019-03-12T12:59:48.643Z,99751.41
2019-03-12T13:02:53.844Z,99747.80
2019-03-12T13:05:59.080Z,99735.81
2019-03-12T13:09:05.650Z,99739.83
2019-03-12T13:12:12.374Z,99726.16
2019-03-12T13:15:17.504Z,99725.10
2019-03-12T13:18:22.625Z,99705.70
2019-03-12T13:21:27.879Z,99709.84
2019-03-12T13:24:33.145Z,99697.77
2019-03-12T13:27:42.579Z,99691.59
2019-03-12T13:30:45.091Z,99684.11
2019-03-12T13:33:50.478Z,99683.67
2019-03-12T13:36:55.562Z,99680.44
2019-03-12T13:40:01.325Z,99687.02
2019-03-12T13:43:07.209Z,99671.44
2019-03-12T13:46:12.425Z,99658.28
2019-03-12T13:49:17.641Z,99652.91
2019-03-12T13:52:22.832Z,99646.83
2019-03-12T13:55:27.946Z,99639.39
2019-03-12T13:58:33.117Z,99630.55
2019-03-12T14:01:38.251Z,99634.39
2019-03-12T14:04:44.634Z,99625.91
2019-03-12T14:07:49.760Z,99616.51
2019-03-12T14:10:54.989Z,99619.83
2019-03-12T14:14:00.158Z,99609.33
2019-03-12T14:17:08.283Z,99614.28
2019-03-12T14:20:44.190Z,99597.05
2019-03-12T14:23:58.710Z,99581.53
2019-03-12T14:27:03.946Z,99573.35
2019-03-12T14:30:09.271Z,99559.33
2019-03-12T14:33:14.514Z,99545.83
2019-03-12T14:36:19.677Z,99543.80
2019-03-12T14:39:24.821Z,99531.62
2019-03-12T14:42:30.016Z,99534.75
2019-03-12T14:45:38.052Z,99521.92
2019-03-12T14:48:47.670Z,99512.03
2019-03-12T14:52:29.545Z,99505.45
2019-03-12T14:55:34.695Z,99494.66
2019-03-12T14:58:39.865Z,99484.76
2019-03-12T15:01:44.926Z,99471.44
2019-03-12T15:04:50.157Z,99454.20
2019-03-12T15:07:55.400Z,99444.78
2019-03-12T15:11:00.522Z,99442.16
2019-03-12T15:14:05.631Z,99427.39
2019-03-12T15:17:10.831Z,99418.64
2019-03-12T15:20:16.031Z,99414.14
2019-03-12T15:23:21.219Z,99397.88
2019-03-12T15:26:26.317Z,99396.12
2019-03-12T15:29:31.437Z,99376.63
2019-03-12T15:32:36.688Z,99361.91
2019-03-12T15:35:41.852Z,99357.41
2019-03-12T15:38:47.894Z,99354.77
2019-03-12T15:41:53.060Z,99342.29
2019-03-12T15:44:58.315Z,99329.17
2019-03-12T15:48:03.479Z,99320.52
2019-03-12T15:51:08.688Z,99305.88
2019-03-12T15:54:13.964Z,99290.09
2019-03-12T15:57:19.079Z,99290.39
2019-03-12T16:00:24.172Z,99274.99
2019-03-12T16:03:29.355Z,99268.24
2019-03-12T16:06:34.574Z,99256.14
2019-03-12T16:09:39.719Z,99236.71
2019-03-12T16:12:46.500Z,99232.06
2019-03-12T16:15:51.673Z,99226.66
2019-03-12T16:18:56.808Z,99222.76
2019-03-12T16:22:02.013Z,99208.94
2019-03-12T16:25:07.898Z,99208.78
2019-03-12T16:28:13.057Z,99211.92
2019-03-12T16:31:18.228Z,99200.46
2019-03-12T16:34:23.464Z,99186.16
2019-03-12T16:37:29.095Z,99176.66
2019-03-12T16:40:34.220Z,99166.67
2019-03-12T16:43:39.382Z,99158.19
2019-03-12T16:46:44.550Z,99160.48
2019-03-12T16:49:49.659Z,99149.58
2019-03-12T16:52:54.903Z,99144.67
2019-03-12T16:56:00.075Z,99133.63
2019-03-12T16:59:08.287Z,99127.28
2019-03-12T17:02:11.966Z,99120.17
2019-03-12T17:05:17.125Z,99120.23
2019-03-12T17:08:22.305Z,99116.16
2019-03-12T17:11:27.457Z,99102.48
2019-03-12T17:14:38.805Z,99092.22
2019-03-12T17:17:39.524Z,99078.72
2019-03-12T17:20:44.724Z,99074.31
2019-03-12T17:23:49.975Z,99073.09
2019-03-12T17:26:55.060Z,99067.23
2019-03-12T17:30:00.440Z,99052.94
2019-03-12T17:33:06.863Z,99048.63
2019-03-12T17:36:12.190Z,99051.53
2019-03-12T17:39:17.305Z,99042.98
2019-03-12T17:42:22.725Z,99039.78
2019-03-12T17:45:27.880Z,99031.75
2019-03-12T17:48:33.051Z,99016.20
2019-03-12T17:51:38.135Z,99012.72
2019-03-12T17:54:43.283Z,99005.50
2019-03-12T17:57:50.738Z,99008.47
2019-03-12T18:00:55.222Z,98995.91
2019-03-12T18:04:00.357Z,98985.52
2019-03-12T18:07:05.646Z,98981.70
2019-03-12T18:10:11.823Z,98973.69
2019-03-12T18:13:16.999Z,98968.53
2019-03-12T18:16:22.111Z,98956.80
2019-03-12T18:19:27.337Z,98959.97
2019-03-12T18:22:32.541Z,98955.65
2019-03-12T18:25:37.921Z,98959.79
2019-03-12T18:28:44.461Z,98944.45
2019-03-12T18:31:49.689Z,98936.11
2019-03-12T18:34:54.972Z,98925.33
2019-03-12T18:38:00.278Z,98917.38
2019-03-12T18:41:05.763Z,98902.13
2019-03-12T18:44:10.888Z,98889.66
2019-03-12T18:47:19.046Z,98879.47
2019-03-12T18:50:23.301Z,98874.77
2019-03-12T18:53:28.540Z,98854.99
2019-03-12T18:56:33.807Z,98862.62
2019-03-12T18:59:38.883Z,98859.30
2019-03-12T19:02:44.024Z,98864.05
2019-03-12T19:05:49.246Z,98853.75
2019-03-12T19:08:54.411Z,98852.41
2019-03-12T19:11:59.502Z,98839.87
2019-03-12T19:15:05.402Z,98822.24
2019-03-12T19:18:10.677Z,98809.88
2019-03-12T19:21:15.783Z,98807.49
2019-03-12T19:24:20.956Z,98809.91
2019-03-12T19:27:27.152Z,98794.02
2019-03-12T19:30:32.556Z,98795.70
2019-03-12T19:33:42.520Z,98777.33
2019-03-12T19:36:47.661Z,98778.93
2019-03-12T19:39:53.011Z,98772.67
2019-03-12T19:42:58.133Z,98766.06
2019-03-12T19:46:03.293Z,98758.40
2019-03-12T19:49:08.497Z,98744.63
2019-03-12T19:52:13.689Z,98741.34
2019-03-12T19:55:22.285Z,98738.08
2019-03-12T19:58:28.647Z,98742.33
2019-03-12T20:01:34.551Z,98725.70
2019-03-12T20:04:47.320Z,98719.64
2019-03-12T20:07:46.562Z,98722.67
2019-03-12T20:11:40.784Z,98709.91
2019-03-12T20:15:17.377Z,98700.27
2019-03-12T20:19:05.408Z,98685.23
2019-03-12T20:22:59.433Z,98671.83
2019-03-12T20:27:13.221Z,98668.70
2019-03-12T20:30:55.400Z,98654.32
2019-03-12T20:34:49.014Z,98660.50
2019-03-12T20:38:30.906Z,98652.37
2019-03-12T20:42:12.036Z,98626.16
2019-03-12T20:46:09.154Z,98617.78
2019-03-12T20:49:50.475Z,98614.14
2019-03-12T20:53:41.626Z,98593.81
2019-03-12T20:57:29.581Z,98581.10
2019-03-12T21:01:27.861Z,98576.27
2019-03-12T21:05:09.195Z,98573.23
2019-03-12T21:09:10.648Z,98564.83
2019-03-12T21:13:21.568Z,98555.94
2019-03-12T21:17:09.764Z,98552.61
2019-03-12T21:21:20.228Z,98542.73
2019-03-12T21:25:00.440Z,98537.08
2019-03-12T21:28:30.618Z,98523.09
2019-03-12T21:31:35.751Z,98517.02
2019-03-12T21:34:41.206Z,98507.32
2019-03-12T21:37:46.379Z,98495.72
2019-03-12T21:40:51.618Z,98496.60
2019-03-12T21:43:57.842Z,98486.19
2019-03-12T21:47:03.052Z,98482.70
2019-03-12T21:50:08.412Z,98476.20
2019-03-12T21:53:13.683Z,98467.28
2019-03-12T21:56:18.897Z,98459.63
2019-03-12T21:59:24.346Z,98453.50
2019-03-12T22:02:29.456Z,98443.38
2019-03-12T22:05:34.539Z,98438.55
2019-03-12T22:08:39.700Z,98435.70
2019-03-12T22:11:44.976Z,98435.27
2019-03-12T22:14:50.206Z,98438.69
2019-03-12T22:17:55.324Z,98451.20
2019-03-12T22:21:00.462Z,98447.90
2019-03-12T22:24:07.629Z,98453.58
2019-03-12T22:27:12.863Z,98444.97
2019-03-12T22:30:21.070Z,98451.96
2019-03-12T22:33:26.334Z,98443.18
2019-03-12T22:36:31.482Z,98460.20
2019-03-12T22:39:36.638Z,98451.31
2019-03-12T22:42:41.904Z,98458.20
2019-03-12T22:45:47.042Z,98465.58
2019-03-12T22:48:52.250Z,98460.85
2019-03-12T22:51:57.342Z,98449.12
2019-03-12T22:55:04.106Z,98432.98
2019-03-12T22:58:09.490Z,98442.45
2019-03-12T23:01:32.444Z,98448.23
2019-03-12T23:04:55.504Z,98438.09
2019-03-12T23:08:18.393Z,98435.83
2019-03-12T23:11:25.195Z,98420.11
2019-03-12T23:14:31.962Z,98413.05
2019-03-12T23:17:37.274Z,98410.38
2019-03-12T23:20:42.530Z,98410.39
2019-03-12T23:23:47.658Z,98393.14
2019-03-12T23:26:52.846Z,98390.39
2019-03-12T23:29:58.046Z,98387.50
2019-03-12T23:33:04.381Z,98370.86
2019-03-12T23:36:09.647Z,98369.55
2019-03-12T23:39:14.957Z,98364.98
2019-03-12T23:42:22.501Z,98370.47
2019-03-12T23:45:27.719Z,98367.03
2019-03-12T23:48:32.856Z,98358.69
2019-03-12T23:51:39.094Z,98361.46
2019-03-12T23:54:44.388Z,98360.80
2019-03-12T23:57:49.531Z,98378.92
